Time;durP1;ratioP1;P1;durP2;ratioP2;P2;SDS_P1;SDS_P2;PMS_P1;PMS_P2;Temp;Humidity;BMP_temperature;BMP_pressure;BME280_temperature;BME280_humidity;BME280_pressure;Samples;Min_cycle;Max_cycle;Signal;HPM_P1;HPM_P2
2022/05/11 00:01:56;;;;;;;9.75;5.13;;;;;;;14.35;76.72;100542.25;6244765;23;20402;-74
2022/05/11 00:05:00;;;;;;;9.40;4.43;;;;;;;14.40;76.98;100541.97;6226175;23;20499;-74
2022/05/11 00:08:05;;;;;;;6.57;3.95;;;;;;;14.46;76.41;100538.09;6225705;23;20027;-74
2022/05/11 00:11:09;;;;;;;7.90;5.00;;;;;;;14.35;76.80;100539.63;6226110;23;20078;-74
2022/05/11 00:14:13;;;;;;;6.90;3.72;;;;;;;14.32;76.73;100531.94;6244280;23;20082;-74
2022/05/11 00:17:16;;;;;;;6.53;4.30;;;;;;;14.23;77.00;100537.00;6244719;23;20089;-74
2022/05/11 00:20:20;;;;;;;4.70;4.13;;;;;;;14.24;76.88;100526.38;6244367;23;20047;-74
2022/05/11 00:23:23;;;;;;;6.32;4.63;;;;;;;14.18;77.24;100530.25;6244493;23;20062;-74
2022/05/11 00:26:27;;;;;;;9.93;4.20;;;;;;;14.13;77.34;100527.09;6244438;23;20355;-74
2022/05/11 00:29:33;;;;;;;8.77;4.35;;;;;;;14.15;77.25;100527.00;6244497;23;20070;-74
2022/05/11 00:32:37;;;;;;;5.28;4.40;;;;;;;14.14;77.14;100523.53;6245450;23;20083;-74
2022/05/11 00:35:43;;;;;;;7.97;4.15;;;;;;;14.05;77.56;100513.63;6245870;23;20588;-74
2022/05/11 00:38:47;;;;;;;7.35;4.85;;;;;;;14.06;77.44;100515.31;6244869;23;20099;-74
2022/05/11 00:41:51;;;;;;;6.28;4.22;;;;;;;14.15;77.08;100503.34;6245748;23;20023;-74
2022/05/11 00:44:56;;;;;;;5.13;4.15;;;;;;;14.09;77.24;100504.59;6244906;23;20059;-74
2022/05/11 00:51:42;;;;;;;5.35;4.50;;;;;;;14.02;77.71;100503.31;6236949;23;20027;-74
2022/05/11 00:54:52;;;;;;;7.03;4.07;;;;;;;14.06;77.48;100504.78;6245805;22;20034;-74
2022/05/11 00:58:02;;;;;;;5.47;4.60;;;;;;;13.91;77.91;100490.91;6227197;23;20062;-74
2022/05/11 01:01:06;;;;;;;8.43;4.40;;;;;;;13.86;78.15;100492.97;6245680;23;20023;-74
2022/05/11 01:04:13;;;;;;;7.72;4.25;;;;;;;13.92;77.84;100497.00;6226603;23;20022;-74
2022/05/11 01:07:17;;;;;;;8.48;4.25;;;;;;;13.88;78.00;100488.47;6245152;23;20026;-74
2022/05/11 01:10:21;;;;;;;5.68;4.53;;;;;;;13.89;77.76;100494.56;6245608;23;20023;-74
2022/05/11 01:13:25;;;;;;;5.82;3.95;;;;;;;13.82;78.05;100485.41;6245460;23;20463;-74
2022/05/11 01:16:29;;;;;;;16.08;4.80;;;;;;;13.84;77.81;100489.59;6227271;23;20059;-74
2022/05/11 01:19:38;;;;;;;7.88;4.65;;;;;;;13.77;78.00;100488.34;6245036;23;20527;-74
2022/05/11 01:22:47;;;;;;;5.80;4.25;;;;;;;13.76;77.92;100485.81;6245121;23;20461;-74
2022/05/11 01:25:53;;;;;;;6.28;4.28;;;;;;;13.78;77.92;100483.91;6245058;23;20023;-74
2022/05/11 01:28:56;;;;;;;7.43;4.10;;;;;;;13.75;77.75;100474.44;6244620;23;20340;-74
2022/05/11 01:31:59;;;;;;;6.75;4.07;;;;;;;13.81;77.53;100483.72;6245476;23;20022;-74
2022/05/11 01:35:24;;;;;;;7.45;3.90;;;;;;;13.69;77.86;100480.97;6244797;23;20027;-74
2022/05/11 01:38:43;;;;;;;4.90;4.20;;;;;;;13.74;77.90;100483.28;6245001;23;20022;-74
2022/05/11 01:41:51;;;;;;;6.07;4.32;;;;;;;13.77;77.76;100484.88;6245297;23;20474;-74
2022/05/11 01:44:55;;;;;;;6.70;4.47;;;;;;;13.72;77.97;100480.78;6244657;23;20462;-74
2022/05/11 01:47:58;;;;;;;7.47;5.43;;;;;;;13.66;78.37;100482.97;6244815;23;20394;-74
2022/05/11 01:51:03;;;;;;;7.28;4.63;;;;;;;13.58;78.82;100478.19;6245059;23;20031;-74
2022/05/11 01:54:06;;;;;;;9.27;4.80;;;;;;;13.61;78.84;100483.25;6245107;22;20074;-74
2022/05/11 01:57:10;;;;;;;5.07;4.35;;;;;;;13.63;78.62;100475.28;6245171;23;20154;-74
2022/05/11 02:00:14;;;;;;;6.13;4.50;;;;;;;13.59;78.83;100468.50;6244937;23;20023;-74
2022/05/11 02:03:18;;;;;;;6.78;4.65;;;;;;;13.58;78.83;100474.72;6244799;23;20027;-74
2022/05/11 02:09:45;;;;;;;6.10;4.40;;;;;;;13.49;78.96;100478.78;6244712;23;20023;-74
2022/05/11 02:12:50;;;;;;;5.68;4.40;;;;;;;13.46;79.17;100477.22;6226500;23;20023;-74
2022/05/11 02:15:55;;;;;;;5.00;4.50;;;;;;;13.40;79.26;100469.75;6244900;23;20027;-74
2022/05/11 02:18:58;;;;;;;5.18;4.53;;;;;;;13.42;79.30;100470.47;6244320;23;20047;-74
2022/05/11 02:22:02;;;;;;;9.20;4.45;;;;;;;13.41;78.87;100473.22;6244610;23;20066;-74
2022/05/11 02:25:07;;;;;;;9.40;4.38;;;;;;;13.29;79.20;100472.22;6245368;23;20123;-74
2022/05/11 02:28:12;;;;;;;5.78;4.40;;;;;;;13.18;79.53;100459.75;6244378;23;20443;-74
2022/05/11 02:31:16;;;;;;;6.32;4.07;;;;;;;13.18;79.50;100469.41;6244829;23;20343;-74
2022/05/11 02:38:24;;;;;;;6.80;4.53;;;;;;;13.23;78.97;100468.16;6244942;23;20050;-74
2022/05/11 02:41:27;;;;;;;5.35;4.20;;;;;;;13.13;79.44;100467.06;6245043;23;20396;-74
2022/05/11 02:44:31;;;;;;;5.25;4.53;;;;;;;13.07;79.78;100464.81;6244086;23;20051;-74
2022/05/11 02:47:36;;;;;;;4.70;4.20;;;;;;;13.07;79.37;100462.19;6244692;23;20023;-74
2022/05/11 02:50:46;;;;;;;8.98;4.78;;;;;;;13.09;79.43;100465.59;6245079;23;20058;-74
2022/05/11 02:53:49;;;;;;;6.38;4.57;;;;;;;13.06;79.19;100459.69;6244985;22;20462;-74
2022/05/11 02:56:53;;;;;;;5.88;4.32;;;;;;;13.06;79.04;100460.53;6244552;23;20023;-74
2022/05/11 02:59:58;;;;;;;7.55;3.92;;;;;;;13.02;79.13;100465.13;6244931;23;20099;-74
2022/05/11 03:03:04;;;;;;;5.93;4.32;;;;;;;12.94;79.36;100461.28;6245190;23;20027;-74
2022/05/11 03:06:08;;;;;;;7.80;4.50;;;;;;;12.90;79.51;100465.06;6244856;23;20566;-74
2022/05/11 03:09:11;;;;;;;8.00;5.30;;;;;;;12.88;79.61;100466.94;6245106;23;20339;-74
2022/05/11 03:12:16;;;;;;;5.85;3.97;;;;;;;12.83;79.46;100464.59;6244613;23;20053;-74
2022/05/11 03:15:21;;;;;;;9.77;4.53;;;;;;;12.82;79.53;100464.69;6226079;23;20139;-74
2022/05/11 03:18:24;;;;;;;5.82;4.55;;;;;;;12.84;79.33;100455.78;6244859;23;20394;-74
2022/05/11 03:21:28;;;;;;;8.00;4.45;;;;;;;12.84;79.29;100457.56;6244751;23;20096;-74
2022/05/11 03:24:32;;;;;;;6.63;4.22;;;;;;;12.82;79.45;100459.44;6244880;23;20026;-74
2022/05/11 03:27:35;;;;;;;5.13;4.45;;;;;;;12.78;79.37;100457.00;6244625;23;20030;-74
2022/05/11 03:30:39;;;;;;;4.50;4.10;;;;;;;12.71;79.60;100455.72;6244402;23;20039;-74
2022/05/11 03:37:07;;;;;;;;;;;;;;;12.67;79.54;100446.34;6245271;23;20074;-74
2022/05/11 03:40:12;;;;;;;11.65;5.60;;;;;;;12.64;79.66;100448.31;6244712;23;19914;-74
2022/05/11 03:43:16;;;;;;;6.95;4.60;;;;;;;12.65;79.47;100447.38;6244774;23;20027;-74
2022/05/11 03:46:19;;;;;;;5.00;4.50;;;;;;;12.72;78.83;100446.06;6244567;23;20027;-74
2022/05/11 03:49:23;;;;;;;7.28;4.95;;;;;;;12.64;78.91;100443.09;6244660;23;20099;-74
2022/05/11 03:52:27;;;;;;;9.18;4.80;;;;;;;12.61;79.03;100443.28;6244656;23;20410;-74
2022/05/11 03:55:34;;;;;;;6.45;5.28;;;;;;;12.53;79.18;100441.09;6240926;22;20023;-74
2022/05/11 03:58:38;;;;;;;7.13;4.47;;;;;;;12.44;79.57;100450.38;6236307;23;20023;-74
2022/05/11 04:01:43;;;;;;;5.65;4.30;;;;;;;12.45;79.55;100438.13;6239112;23;20043;-74
2022/05/11 04:04:47;;;;;;;6.93;4.28;;;;;;;12.44;79.66;100445.13;6239898;23;20034;-74
2022/05/11 04:07:52;;;;;;;16.77;4.95;;;;;;;12.40;79.80;100442.78;6241324;23;20027;-74
2022/05/11 04:10:56;;;;;;;9.75;4.78;;;;;;;12.36;80.08;100450.00;6221016;23;20100;-74
2022/05/11 04:14:00;;;;;;;7.30;4.88;;;;;;;12.39;80.06;100443.75;6240285;23;20470;-74
2022/05/11 04:17:03;;;;;;;5.10;4.13;;;;;;;12.39;80.16;100444.59;6240658;23;20470;-74
2022/05/11 04:20:08;;;;;;;5.03;4.32;;;;;;;12.46;79.75;100442.44;6240722;23;20023;-74
2022/05/11 04:23:12;;;;;;;6.72;4.70;;;;;;;12.45;79.83;100444.22;6240713;23;20063;-73
2022/05/11 04:26:21;;;;;;;7.40;4.88;;;;;;;12.47;79.84;100441.47;6240863;23;20050;-74
2022/05/11 04:29:25;;;;;;;7.55;4.72;;;;;;;12.57;79.41;100437.34;6241021;23;20490;-74
2022/05/11 04:32:29;;;;;;;7.10;4.68;;;;;;;12.54;79.74;100438.41;6241230;23;20081;-74
2022/05/11 04:35:36;;;;;;;6.13;4.45;;;;;;;12.49;79.88;100432.59;6239478;23;20027;-74
2022/05/11 04:38:43;;;;;;;5.60;4.35;;;;;;;12.48;80.16;100430.06;6240273;23;20019;-74
2022/05/11 04:41:49;;;;;;;7.25;4.35;;;;;;;12.56;80.08;100438.28;6240512;23;20460;-74
2022/05/11 04:44:53;;;;;;;8.60;5.20;;;;;;;12.69;79.30;100436.59;6240455;23;20055;-74
2022/05/11 04:48:00;;;;;;;9.80;6.00;;;;;;;12.72;79.06;100436.41;6240011;23;20070;-74
2022/05/11 04:51:04;;;;;;;8.00;5.60;;;;;;;12.77;79.03;100426.47;6239805;23;20351;-74
2022/05/11 04:54:11;;;;;;;7.70;4.50;;;;;;;12.89;78.54;100426.63;6241178;22;20026;-74
2022/05/11 04:57:19;;;;;;;7.45;4.18;;;;;;;12.80;78.96;100433.31;6240784;23;20023;-74
2022/05/11 05:00:25;;;;;;;7.40;4.63;;;;;;;12.80;79.54;100430.69;6240635;23;20022;-74
2022/05/11 05:03:29;;;;;;;6.72;4.88;;;;;;;12.82;79.74;100428.78;6240214;23;20077;-74
2022/05/11 05:06:36;;;;;;;6.00;5.25;;;;;;;12.96;79.25;100427.94;6241070;23;20031;-74
2022/05/11 05:09:44;;;;;;;6.88;5.70;;;;;;;12.82;80.22;100430.56;6241245;23;20522;-74
2022/05/11 05:13:14;;;;;;;4.68;4.20;;;;;;;13.06;79.76;100428.19;6242013;23;20092;-74
2022/05/11 05:16:19;;;;;;;5.03;4.45;;;;;;;13.20;78.96;100439.47;6240989;23;20023;-74
2022/05/11 05:19:22;;;;;;;5.45;4.43;;;;;;;13.24;78.18;100435.75;6240586;23;20023;-74
2022/05/11 05:22:28;;;;;;;7.28;4.20;;;;;;;13.24;78.51;100437.47;6241782;23;20058;-74
2022/05/11 05:25:33;;;;;;;5.97;4.30;;;;;;;13.26;78.38;100438.25;6241008;23;20030;-73
2022/05/11 05:31:59;;;;;;;5.40;4.57;;;;;;;13.18;79.07;100438.75;6239892;23;20101;-73
2022/05/11 05:35:05;;;;;;;5.97;4.45;;;;;;;13.14;79.88;100439.84;6240461;23;20082;-74
2022/05/11 05:38:09;;;;;;;5.70;4.53;;;;;;;13.24;79.38;100437.47;6240421;23;20074;-74
2022/05/11 05:41:12;;;;;;;7.00;4.35;;;;;;;13.22;79.58;100440.22;6240843;22;20074;-74
2022/05/11 05:44:16;;;;;;;5.00;3.97;;;;;;;13.22;80.61;100444.63;6241732;23;20050;-73
2022/05/11 05:47:21;;;;;;;5.85;4.35;;;;;;;13.22;80.63;100437.59;6239167;23;20069;-74
2022/05/11 05:50:25;;;;;;;6.95;5.38;;;;;;;13.38;80.61;100434.00;6221306;23;20027;-74
2022/05/11 05:53:30;;;;;;;6.82;4.80;;;;;;;13.45;80.07;100436.13;6240714;22;20069;-74
2022/05/11 05:56:37;;;;;;;7.40;4.60;;;;;;;13.56;80.29;100435.44;6241736;23;20601;-73
2022/05/11 05:59:42;;;;;;;5.80;3.60;;;;;;;13.60;80.93;100442.16;6241634;23;20047;-74
2022/05/11 06:02:46;;;;;;;7.00;4.18;;;;;;;13.61;81.06;100440.38;6241406;23;20071;-74
2022/05/11 06:05:50;;;;;;;5.68;4.47;;;;;;;13.73;81.15;100440.41;6240098;23;20047;-73
2022/05/11 06:08:53;;;;;;;5.68;4.20;;;;;;;13.99;80.53;100437.81;6240903;23;20023;-74
2022/05/11 06:11:57;;;;;;;5.07;4.43;;;;;;;14.22;79.44;100440.66;6239620;23;20057;-74
2022/05/11 06:15:03;;;;;;;6.78;4.10;;;;;;;14.22;79.93;100435.38;6240268;23;20023;-74
2022/05/11 06:18:10;;;;;;;9.15;4.32;;;;;;;14.23;80.42;100434.44;6240392;23;20090;-74
2022/05/11 06:21:16;;;;;;;5.30;4.00;;;;;;;14.29;79.70;100432.22;6240772;23;20074;-74
2022/05/11 06:24:20;;;;;;;4.95;4.05;;;;;;;14.51;78.64;100430.75;6240313;23;20023;-74
2022/05/11 06:27:24;;;;;;;4.30;3.90;;;;;;;14.62;78.87;100428.22;6238227;23;20115;-74
2022/05/11 06:30:29;;;;;;;5.35;3.95;;;;;;;14.73;79.06;100419.56;6236639;23;20095;-74
2022/05/11 06:33:33;;;;;;;5.75;4.00;;;;;;;14.88;78.14;100418.47;6236161;23;20035;-74
2022/05/11 06:36:37;;;;;;;9.73;3.58;;;;;;;14.86;78.61;100409.84;6238536;23;20347;-74
2022/05/11 06:39:42;;;;;;;5.03;3.85;;;;;;;15.01;77.90;100413.16;6238003;23;20027;-74
2022/05/11 06:42:48;;;;;;;6.20;3.80;;;;;;;15.05;78.11;100409.34;6219746;23;20054;-74
2022/05/11 06:45:52;;;;;;;10.57;4.18;;;;;;;15.19;77.88;100403.94;6239464;23;20066;-74
2022/05/11 06:48:56;;;;;;;7.68;4.13;;;;;;;15.31;77.40;100399.53;6239323;23;20030;-74
2022/05/11 06:52:01;;;;;;;7.10;3.97;;;;;;;15.37;77.81;100396.44;6239212;22;20524;-74
2022/05/11 06:59:20;;;;;;;4.57;4.13;;;;;;;15.71;76.35;100393.94;6239837;23;20019;-74
2022/05/11 07:01:57;;;;;;;4.45;3.40;;;;;;;15.82;76.80;100388.69;6238557;23;20023;-74
2022/05/11 07:05:05;;;;;;;6.18;4.55;;;;;;;15.94;76.29;100384.28;6238933;23;20035;-74
2022/05/11 07:08:09;;;;;;;5.70;4.28;;;;;;;16.02;76.16;100384.53;6238980;23;20026;-74
2022/05/11 07:14:35;;;;;;;5.07;3.50;;;;;;;16.30;77.65;100383.22;6238763;23;20074;-73
2022/05/11 07:17:43;;;;;;;5.10;4.00;;;;;;;16.45;79.06;100378.53;6238787;23;20026;-74
2022/05/11 07:20:46;;;;;;;7.07;3.95;;;;;;;16.57;78.04;100368.81;6238715;23;20044;-74
2022/05/11 07:23:49;;;;;;;5.40;4.05;;;;;;;16.83;78.60;100375.50;6238925;23;20026;-74
2022/05/11 07:26:54;;;;;;;7.55;3.80;;;;;;;16.93;78.08;100365.03;6239486;23;20085;-74
2022/05/11 07:29:58;;;;;;;8.15;4.38;;;;;;;17.25;73.51;100359.75;6239795;23;20027;-74
2022/05/11 07:33:03;;;;;;;7.88;3.72;;;;;;;17.75;69.21;100354.66;6239049;23;20023;-75
2022/05/11 07:36:07;;;;;;;6.43;3.83;;;;;;;18.00;67.71;100355.25;6237965;23;20023;-75
2022/05/11 07:39:11;;;;;;;7.70;3.55;;;;;;;18.44;64.46;100354.03;6238357;23;20023;-74
2022/05/11 07:42:14;;;;;;;7.80;3.58;;;;;;;18.50;64.24;100352.63;6236137;23;20078;-74
2022/05/11 07:45:18;;;;;;;5.18;3.38;;;;;;;18.85;62.34;100352.16;6240330;23;20122;-74
2022/05/11 07:48:22;;;;;;;6.80;3.60;;;;;;;18.80;62.95;100349.94;6240281;23;20077;-74
2022/05/11 07:51:29;;;;;;;4.75;3.50;;;;;;;18.89;62.23;100350.06;6240297;23;20478;-74
2022/05/11 07:54:33;;;;;;;3.90;2.70;;;;;;;19.18;61.30;100347.47;6239479;23;20031;-74
2022/05/11 08:00:59;;;;;;;7.65;3.47;;;;;;;19.51;60.06;100338.22;6244642;23;20035;-74
2022/05/11 08:04:04;;;;;;;5.65;3.53;;;;;;;19.62;59.18;100338.06;6248792;23;20066;-74
2022/05/11 08:07:13;;;;;;;4.20;3.00;;;;;;;19.56;59.23;100329.81;6229843;23;20027;-74
2022/05/11 08:10:23;;;;;;;8.48;3.60;;;;;;;19.71;58.36;100329.25;6244741;23;20027;-75
2022/05/11 08:13:30;;;;;;;5.55;3.13;;;;;;;19.88;58.07;100326.84;6244394;23;20074;-75
2022/05/11 08:16:33;;;;;;;7.50;3.20;;;;;;;19.82;58.62;100330.91;6224958;23;20027;-74
2022/05/11 08:19:37;;;;;;;4.38;2.95;;;;;;;19.90;57.47;100322.22;6244340;23;20038;-74
2022/05/11 08:22:45;;;;;;;6.50;2.80;;;;;;;19.88;58.17;100322.38;6244494;23;20039;-74
2022/05/11 08:25:51;;;;;;;5.65;3.00;;;;;;;20.03;57.22;100309.44;6244552;23;20414;-74
2022/05/11 08:28:55;;;;;;;6.22;3.05;;;;;;;20.18;56.75;100302.69;6244242;23;20027;-74
2022/05/11 08:35:21;;;;;;;5.82;3.00;;;;;;;20.72;55.94;100301.97;6244410;23;20160;-74
2022/05/11 08:38:29;;;;;;;4.20;2.65;;;;;;;20.50;55.90;100300.53;6243207;23;20019;-74
2022/05/11 08:41:48;;;;;;;4.53;2.72;;;;;;;20.64;55.78;100302.69;6244491;23;20023;-74
2022/05/11 08:44:51;;;;;;;6.35;2.90;;;;;;;20.86;54.96;100304.09;6224589;23;20026;-74
2022/05/11 08:47:55;;;;;;;8.27;2.83;;;;;;;21.02;53.82;100296.25;6244585;23;20027;-74
2022/05/11 08:51:02;;;;;;;4.28;2.70;;;;;;;21.61;51.28;100298.38;6244049;23;20023;-74
2022/05/11 08:54:15;;;;;;;4.57;2.90;;;;;;;21.31;52.43;100292.47;6244045;23;20023;-74
2022/05/11 08:57:25;;;;;;;6.55;2.85;;;;;;;21.49;51.85;100295.97;6245987;22;20055;-74
2022/05/11 09:00:28;;;;;;;5.03;2.63;;;;;;;21.68;50.80;100294.09;6245706;23;20020;-73
2022/05/11 09:03:43;;;;;;;5.55;2.13;;;;;;;21.83;49.75;100295.19;6240907;23;20066;-74
2022/05/11 09:06:48;;;;;;;9.90;4.00;;;;;;;21.88;49.82;100287.53;6240167;23;20031;-74
2022/05/11 09:09:53;;;;;;;5.63;2.83;;;;;;;21.85;49.16;100279.88;6239442;23;20077;-73
2022/05/11 09:12:59;;;;;;;4.47;2.40;;;;;;;22.10;49.61;100286.13;6242787;23;20027;-74
2022/05/11 09:16:06;;;;;;;6.35;2.45;;;;;;;22.14;49.18;100281.31;6243840;23;20474;-74
2022/05/11 09:19:29;;;;;;;6.63;2.70;;;;;;;22.14;48.86;100270.66;6243340;23;20471;-73
2022/05/11 09:22:36;;;;;;;6.22;2.47;;;;;;;22.22;48.66;100268.91;6244907;23;20070;-73
2022/05/11 09:25:58;;;;;;;4.78;2.20;;;;;;;22.33;48.12;100261.59;6244783;23;20023;-73
2022/05/11 09:29:25;;;;;;;4.88;2.30;;;;;;;22.45;48.35;100265.63;6245603;23;20069;-74
2022/05/11 09:32:37;;;;;;;4.07;2.17;;;;;;;22.57;48.29;100258.19;6245446;23;20082;-74
2022/05/11 09:35:41;;;;;;;10.80;2.40;;;;;;;22.87;46.64;100264.69;6245348;23;20086;-73
2022/05/11 09:38:46;;;;;;;3.75;2.25;;;;;;;22.87;44.96;100252.19;6245398;23;20066;-73
2022/05/11 09:41:51;;;;;;;4.30;2.00;;;;;;;23.20;43.55;100257.56;6245609;23;20026;-74
2022/05/11 09:44:55;;;;;;;7.05;1.85;;;;;;;23.83;40.34;100255.91;6243738;23;20026;-73
2022/05/11 09:48:02;;;;;;;8.95;1.80;;;;;;;23.84;40.38;100255.75;6245313;23;20123;-74
2022/05/11 09:51:31;;;;;;;6.28;2.50;;;;;;;23.92;39.44;100248.72;6245715;23;20028;-74
2022/05/11 09:54:50;;;;;;;6.25;1.85;;;;;;;23.77;39.35;100246.78;6244725;23;20066;-74
2022/05/11 09:58:06;;;;;;;6.57;1.52;;;;;;;24.05;38.67;100241.78;6243646;22;20074;-74
2022/05/11 10:01:15;;;;;;;10.65;1.90;;;;;;;24.39;37.05;100242.44;6226260;23;20063;-73
2022/05/11 10:04:30;;;;;;;7.78;2.10;;;;;;;24.24;37.57;100237.03;6244858;23;20027;-74
2022/05/11 10:07:45;;;;;;;5.22;1.88;;;;;;;24.33;37.68;100258.16;6245085;23;20027;-73
2022/05/11 10:11:16;;;;;;;4.22;1.73;;;;;;;23.89;39.12;100220.50;6244977;23;20054;-74
2022/05/11 10:25:15;;;;;;;4.57;1.85;;;;;;;24.53;36.62;100214.97;6244509;23;20031;-74
2022/05/11 10:28:43;;;;;;;3.35;1.77;;;;;;;24.42;37.78;100218.91;6244856;23;20046;-74
2022/05/11 10:32:05;;;;;;;5.38;1.60;;;;;;;24.71;37.61;100220.84;6245403;23;20351;-74
2022/05/11 10:35:12;;;;;;;3.92;1.80;;;;;;;24.77;37.24;100190.72;6245183;23;20509;-74
2022/05/11 10:38:33;;;;;;;3.35;1.88;;;;;;;24.67;37.52;100213.38;6245046;23;20023;-74
2022/05/11 10:41:57;;;;;;;3.13;1.60;;;;;;;24.52;36.51;100197.28;6244848;23;20078;-74
2022/05/11 10:45:23;;;;;;;3.50;1.85;;;;;;;24.63;37.19;100198.69;6243101;23;20082;-74
2022/05/11 10:48:57;;;;;;;8.07;1.83;;;;;;;25.02;36.18;100187.84;6244556;23;20023;-74
2022/05/11 10:52:16;;;;;;;;;;;;;;;25.11;36.47;100181.41;6245192;23;20046;-74
2022/05/11 10:55:26;;;;;;;3.95;1.50;;;;;;;25.16;35.73;100167.50;6244854;23;19915;-74
2022/05/11 10:59:00;;;;;;;9.43;1.95;;;;;;;25.09;37.22;100167.34;6225948;23;20023;-74
2022/05/11 11:02:41;;;;;;;16.35;1.80;;;;;;;25.09;36.47;100175.38;6245138;23;20027;-74
2022/05/11 11:10:33;;;;;;;8.68;1.70;;;;;;;25.14;35.52;100175.69;6245040;23;20466;-74
2022/05/11 11:13:51;;;;;;;3.95;1.80;;;;;;;25.19;35.95;100165.28;6213462;23;20032;-74
2022/05/11 11:16:56;;;;;;;9.52;1.63;;;;;;;25.56;34.46;100155.50;6244757;23;20103;-73
2022/05/11 11:20:03;;;;;;;7.25;1.63;;;;;;;25.73;34.75;100158.78;6244730;23;20078;-74
2022/05/11 11:23:17;;;;;;;6.95;1.77;;;;;;;25.62;34.87;100161.91;6244374;23;20074;-74
2022/05/11 11:26:30;;;;;;;4.05;1.92;;;;;;;25.47;35.70;100156.59;6244787;23;20027;-73
2022/05/11 11:30:11;;;;;;;6.53;2.42;;;;;;;25.49;35.85;100159.91;6244402;23;20114;-74
2022/05/11 11:33:23;;;;;;;5.65;1.65;;;;;;;25.46;35.05;100133.50;6226229;23;20078;-74
2022/05/11 11:36:40;;;;;;;6.00;1.50;;;;;;;25.52;35.12;100140.78;6244953;23;20031;-74
2022/05/11 11:39:54;;;;;;;5.05;1.77;;;;;;;25.69;35.00;100142.25;6245549;23;20070;-74
2022/05/11 11:43:38;;;;;;;5.57;2.08;;;;;;;26.02;34.16;100133.78;6244877;23;20022;-74
2022/05/11 11:46:35;;;;;;;7.80;1.85;;;;;;;25.93;34.30;100132.25;6244747;23;20120;-74
2022/05/11 11:49:41;;;;;;;4.28;1.52;;;;;;;25.56;35.06;100141.25;6244728;23;20023;-74
2022/05/11 11:52:46;;;;;;;6.03;1.80;;;;;;;25.58;35.44;100134.69;6244533;23;20085;-74
2022/05/11 11:55:53;;;;;;;4.93;2.00;;;;;;;25.53;35.26;100115.69;6226119;23;20110;-74
2022/05/11 11:59:09;;;;;;;12.50;1.80;;;;;;;26.00;33.61;100132.31;6244035;23;20376;-74
2022/05/11 12:02:31;;;;;;;6.45;1.80;;;;;;;25.86;33.88;100117.97;6243935;23;20058;-74
2022/05/11 12:16:14;;;;;;;6.70;1.90;;;;;;;25.81;35.75;100101.63;6243592;23;20305;-74
2022/05/11 12:19:18;;;;;;;6.47;2.30;;;;;;;26.12;34.97;100094.09;6244888;23;20043;-75
2022/05/11 12:22:22;;;;;;;10.27;2.25;;;;;;;26.29;34.39;100108.09;6225568;23;20066;-74
2022/05/11 12:25:36;;;;;;;6.05;2.50;;;;;;;26.30;33.76;100122.31;6242573;23;20397;-75
2022/05/11 12:28:44;;;;;;;9.20;2.70;;;;;;;26.40;33.02;100101.38;6243992;23;20054;-75
2022/05/11 12:31:58;;;;;;;9.90;2.63;;;;;;;26.38;33.75;100127.53;6245076;23;20112;-74
2022/05/11 12:35:19;;;;;;;5.72;2.22;;;;;;;26.62;33.46;100103.03;6245318;23;20398;-73
2022/05/11 12:38:32;;;;;;;9.32;2.20;;;;;;;26.92;32.13;100097.44;6246506;22;20442;-74
2022/05/11 12:41:35;;;;;;;8.43;2.22;;;;;;;26.99;31.38;100092.91;6245847;23;20403;-74
2022/05/11 12:44:40;;;;;;;7.95;2.08;;;;;;;27.44;30.78;100088.03;6246677;23;20100;-74
2022/05/11 12:47:48;;;;;;;7.18;2.38;;;;;;;27.71;30.37;100085.44;6245991;23;20023;-74
2022/05/11 12:50:56;;;;;;;11.60;2.33;;;;;;;27.91;30.01;100099.75;6245584;23;20390;-74
2022/05/11 12:54:03;;;;;;;5.65;2.13;;;;;;;27.72;29.43;100097.81;6246257;23;20150;-74
2022/05/11 12:57:15;;;;;;;5.05;2.30;;;;;;;27.51;30.90;100088.88;6245685;23;20070;-75
2022/05/11 13:00:22;;;;;;;3.83;2.38;;;;;;;27.38;30.74;100079.94;6244846;22;20091;-76
2022/05/11 13:03:36;;;;;;;6.22;2.20;;;;;;;27.55;31.13;100074.00;6228556;23;20031;-75
2022/05/11 13:06:44;;;;;;;9.18;2.20;;;;;;;28.03;29.25;100079.31;6245181;23;20027;-75
2022/05/11 13:09:52;;;;;;;8.60;2.50;;;;;;;27.94;28.50;100088.59;6244783;23;20054;-75
2022/05/11 13:13:01;;;;;;;6.22;1.98;;;;;;;27.95;29.37;100068.78;6244850;23;20047;-76
2022/05/11 13:16:18;;;;;;;6.90;2.28;;;;;;;28.03;29.77;100068.56;6246612;23;20071;-75
2022/05/11 14:27:48;;;;;;;3.30;1.40;;;;;;;35.48;15.96;99973.75;6184490;23;20075;-80
2022/05/11 14:30:57;;;;;;;7.72;2.00;;;;;;;35.37;15.41;99967.41;6184175;23;20279;-77
2022/05/11 14:34:04;;;;;;;6.10;1.55;;;;;;;35.98;15.52;99972.56;6185115;23;20043;-77
2022/05/11 14:37:58;;;;;;;7.20;1.63;;;;;;;36.46;15.00;99976.97;6184040;23;20023;-77
2022/05/11 14:41:03;;;;;;;5.45;1.52;;;;;;;36.37;15.41;99966.84;6185645;23;20047;-78
2022/05/11 14:44:32;;;;;;;4.87;1.90;;;;;;;34.64;15.33;99977.72;6185442;23;20044;-77
2022/05/11 14:47:38;;;;;;;11.23;2.05;;;;;;;38.80;13.84;99971.94;6204618;23;20180;-76
2022/05/11 14:50:44;;;;;;;4.85;1.85;;;;;;;36.86;14.77;99988.34;6208357;23;20020;-76
2022/05/11 14:53:52;;;;;;;7.35;1.80;;;;;;;36.89;13.88;99971.47;6206480;23;20051;-74
2022/05/11 15:03:45;;;;;;;15.68;1.95;;;;;;;35.17;16.20;99962.59;6180492;23;20071;-76
2022/05/11 15:14:40;;;;;;;7.40;1.70;;;;;;;38.22;14.99;99949.75;6180043;23;20091;-76
2022/05/11 15:17:44;;;;;;;6.95;1.60;;;;;;;37.71;14.19;99956.06;6177863;23;20244;-76
2022/05/11 15:20:49;;;;;;;4.78;1.58;;;;;;;34.89;16.46;99959.00;6177073;23;20396;-77
2022/05/11 15:23:56;;;;;;;9.40;1.77;;;;;;;36.65;15.36;99947.41;6175124;23;20384;-76
2022/05/11 15:27:01;;;;;;;10.50;1.85;;;;;;;35.55;15.89;99948.03;6233213;23;20063;-78
2022/05/11 15:30:07;;;;;;;3.17;1.52;;;;;;;34.03;16.76;99959.47;6238058;23;20043;-79
2022/05/11 15:33:22;;;;;;;6.50;1.55;;;;;;;34.68;16.11;99943.53;6238638;23;20381;-78
2022/05/11 15:36:28;;;;;;;4.78;1.50;;;;;;;36.11;15.27;99939.47;6239215;23;20105;-78
2022/05/11 15:39:33;;;;;;;7.45;1.70;;;;;;;34.41;16.93;99949.69;6239223;23;20467;-77
2022/05/11 15:42:42;;;;;;;7.78;2.00;;;;;;;34.73;15.92;99949.03;6239419;23;20055;-79
2022/05/11 15:45:50;;;;;;;3.38;1.38;;;;;;;35.46;15.91;99932.44;6240129;23;20089;-79
2022/05/11 15:48:54;;;;;;;4.80;1.50;;;;;;;36.11;15.00;99936.75;6238747;23;20078;-79
2022/05/11 15:51:59;;;;;;;5.60;1.85;;;;;;;34.62;16.11;99934.53;6221555;23;20027;-78
2022/05/11 15:55:08;;;;;;;7.13;1.90;;;;;;;35.97;16.19;99932.84;6239925;23;20462;-78
2022/05/11 15:58:16;;;;;;;5.45;1.38;;;;;;;34.98;15.18;99936.84;6240005;23;20031;-77
2022/05/11 16:01:24;;;;;;;10.65;1.42;;;;;;;33.43;16.81;99938.38;6241342;23;20052;-78
2022/05/11 16:04:29;;;;;;;5.25;1.33;;;;;;;33.11;18.01;99924.53;6242854;22;20023;-77
2022/05/11 16:07:37;;;;;;;6.32;1.40;;;;;;;33.11;17.16;99930.78;6243304;23;20086;-76
2022/05/11 16:10:42;;;;;;;3.85;1.20;;;;;;;33.05;17.12;99931.75;6243018;23;20438;-76
2022/05/11 16:13:48;;;;;;;5.97;2.67;;;;;;;33.03;17.23;99933.06;6242602;23;20420;-77
2022/05/11 16:16:52;;;;;;;4.78;1.65;;;;;;;33.66;16.62;99934.72;6242125;23;20023;-76
2022/05/11 16:19:57;;;;;;;4.85;1.15;;;;;;;33.45;16.91;99951.72;6242379;23;20066;-77
2022/05/11 16:23:05;;;;;;;6.57;1.30;;;;;;;30.18;20.13;99939.09;6223068;23;20467;-76
2022/05/11 16:26:11;;;;;;;3.53;1.30;;;;;;;29.21;21.96;99938.59;6240942;23;20027;-76
2022/05/11 16:29:21;;;;;;;4.50;1.60;;;;;;;28.34;22.15;99948.84;6222424;23;20358;-78
2022/05/11 16:32:46;;;;;;;5.47;1.25;;;;;;;28.17;22.81;99942.22;6240880;23;20027;-76
2022/05/11 16:35:52;;;;;;;9.05;1.17;;;;;;;27.91;22.94;99951.16;6241086;23;20339;-75
2022/05/11 16:38:57;;;;;;;7.05;1.45;;;;;;;28.10;23.20;99946.78;6222391;23;20503;-75
2022/05/11 16:42:05;;;;;;;5.38;1.58;;;;;;;27.85;24.45;99933.16;6241013;23;20341;-75
2022/05/11 16:45:11;;;;;;;7.93;1.55;;;;;;;27.53;23.94;99930.22;6241955;23;20055;-75
2022/05/11 16:48:15;;;;;;;4.97;1.58;;;;;;;27.59;24.91;99932.91;6238625;23;20027;-75
2022/05/11 16:51:22;;;;;;;5.55;1.35;;;;;;;27.30;25.18;99946.72;6246083;23;20077;-75
2022/05/11 16:54:28;;;;;;;7.78;1.63;;;;;;;27.24;25.39;99934.13;6244471;23;20050;-75
2022/05/11 16:57:35;;;;;;;5.60;1.35;;;;;;;27.21;26.31;99942.56;6245325;23;20023;-74